Estación Meteorológica Peña el Pijo (Robertgarden) [ 12/11/19 23:26:13 CET ]

Fecha Hora Presion(HPa) Temp (°C) Humedad % Rocio (°C) Viento ( m/s) Direccion Lluvia 1Hora(mm) Lluvia 24H(mm) LLuvia Total(mm)
2019-Aug-04 01:01:48 1010.300 17.5 88 15.5       19.16 363.34
2019-Aug-04 02:01:48 1010.400 16.6 88 14.6       19.16 363.34
2019-Aug-04 03:01:42 1010.100 15.8 88 13.8       19.16 363.34
2019-Aug-04 04:01:40 1010.100 14.9 89 13.1       19.16 363.34
2019-Aug-04 05:01:38 1010.100 14.6 89 12.8       19.16 363.34
2019-Aug-04 06:01:38 1010.000 14.1 89 12.3       19.16 363.34
2019-Aug-04 07:01:57 1010.000 13.9 89 12.1       19.16 363.34
2019-Aug-04 08:01:50 1010.100 14.8 86 12.5       19.16 363.34
2019-Aug-04 09:01:44 1010.200 19.1 77 15.0       19.16 363.34
2019-Aug-04 10:01:51 1010.600 26.1 59 17.5       19.16 363.34
2019-Aug-04 11:01:47 1010.500 31.3 42 16.8       19.16 363.34
2019-Aug-04 12:01:43 1010.200 32.1 34 14.1       19.16 363.34
2019-Aug-04 13:01:51 1010.300 33.2 32 14.2       19.16 363.34
2019-Aug-04 14:01:49 1009.500 35.2 30 15.1       19.16 363.34
2019-Aug-04 15:01:54 1009.100 37.4 28 15.7       19.16 363.34
2019-Aug-04 16:01:57 1008.900 37.8 26 14.8       19.16 363.34
2019-Aug-04 17:01:55 1008.700 34.5 31 14.9       2.07 363.34
2019-Aug-04 18:01:59 1008.700 35.0 31 15.3         363.34
2019-Aug-04 19:01:58 1009.000 33.1 37 16.4 4.6 WSW     363.34
2019-Aug-04 20:02:03 1009.200 30.9 42 16.5         363.34
2019-Aug-04 21:01:40 1009.800 28.6 49 16.8         363.34
2019-Aug-04 22:01:50 1010.300 25.1 61 17.0         363.34
2019-Aug-04 23:01:58 1011.000 22.6 69 16.6         363.34

Temperatura Máxima:37°    Temperatura Mínima:13°
Presión Máxima:1011.000 Hpa    Presión Mínima:1008.700 Hpa


Volver